Antea — IBBM — position and weather

sailwx.info

Track history (hours):
 
Tides and Currents Weather Stations Pressure Air Temp Water Temp Dewpoint Dewpoint Depression Visibility Wind Speed Wind Dir Waves Ship Positions

Antea

Last reported at 2013-Dec-08 05:31 UTC. Time now 2014-Sep-17 09:36 UTC.
Position N 40°35' E 022°54'.
Warning: this ship's position is months out of date.

Length 175 m; draft 9 m.

Type: Tanker. MMSI: 247149900.

Date/timePositionNaut miles runAvg speedWind from/ knotsBaromVisibWave heightAir tempDewpointWater temp
2013-Dec-08 05:31N 40°35' E 022°54'163 8.4
2013-Dec-07 10:05N 38°16' E 024°45'2311.7
2013-Dec-07 08:08N 37°54' E 024°36'712.8
2013-Dec-07 07:33N 37°47' E 024°33'1312.8
2013-Dec-07 06:33N 37°36' E 024°26'1313.5
2013-Dec-07 05:33N 37°24' E 024°17'1313.5
2013-Dec-07 04:33N 37°12' E 024°09'1313.1
2013-Dec-07 03:33N 37°01' E 024°02'1413.4
2013-Dec-07 02:32N 36°48' E 023°55'1313.3
2013-Dec-07 01:33N 36°40' E 023°42'  
Track history (hours):
 
Tides and Currents Weather Stations Pressure Air Temp Water Temp Dewpoint Dewpoint Depression Visibility Wind Speed Wind Dir Waves Ship Positions

Antea

Last reported at 2013-Dec-08 05:31 UTC. Time now 2014-Sep-17 09:36 UTC.
Position N 40°35' E 022°54'.
Warning: this ship's position is months out of date.

Length 175 m; draft 9 m.

Type: Tanker. MMSI: 247149900.

Date/timePositionNaut miles runAvg speedWind from/ knotsBaromVisibWave heightAir tempDewpointWater temp
2013-Dec-08 05:31N 40°35' E 022°54'163 8.4
2013-Dec-07 10:05N 38°16' E 024°45'2311.7
2013-Dec-07 08:08N 37°54' E 024°36'712.8
2013-Dec-07 07:33N 37°47' E 024°33'1312.8
2013-Dec-07 06:33N 37°36' E 024°26'1313.5
2013-Dec-07 05:33N 37°24' E 024°17'1313.5
2013-Dec-07 04:33N 37°12' E 024°09'1313.1
2013-Dec-07 03:33N 37°01' E 024°02'1413.4
2013-Dec-07 02:32N 36°48' E 023°55'1313.3
2013-Dec-07 01:33N 36°40' E 023°42'  

Dump ship's entire track history